sensor_id;sensor_type;location;lat;lon;timestamp;temperature;humidity
55083;DHT22;40978;52.850;6.506;2024-01-10T00:01:59;-3.70;99.90
55083;DHT22;40978;52.850;6.506;2024-01-10T00:04:25;-3.70;99.90
55083;DHT22;40978;52.850;6.506;2024-01-10T00:06:51;-3.70;99.90
55083;DHT22;40978;52.850;6.506;2024-01-10T00:09:17;-3.70;99.90
55083;DHT22;40978;52.850;6.506;2024-01-10T00:11:42;-3.70;99.90
55083;DHT22;40978;52.850;6.506;2024-01-10T00:14:08;-3.70;99.90
55083;DHT22;40978;52.850;6.506;2024-01-10T00:16:34;-3.80;99.90
55083;DHT22;40978;52.850;6.506;2024-01-10T00:19:00;-3.80;99.90
55083;DHT22;40978;52.850;6.506;2024-01-10T00:21:26;-3.80;99.90
55083;DHT22;40978;52.850;6.506;2024-01-10T00:23:52;-3.80;99.90
55083;DHT22;40978;52.850;6.506;2024-01-10T00:26:18;-3.80;99.90
55083;DHT22;40978;52.850;6.506;2024-01-10T00:28:43;-3.80;99.90
55083;DHT22;40978;52.850;6.506;2024-01-10T00:31:12;-3.80;99.90
55083;DHT22;40978;52.850;6.506;2024-01-10T00:33:38;-3.80;99.90
55083;DHT22;40978;52.850;6.506;2024-01-10T00:36:04;-3.90;99.90
55083;DHT22;40978;52.850;6.506;2024-01-10T00:38:30;-3.80;99.90
55083;DHT22;40978;52.850;6.506;2024-01-10T00:40:55;-3.90;99.90
55083;DHT22;40978;52.850;6.506;2024-01-10T00:43:22;-3.90;99.90
55083;DHT22;40978;52.850;6.506;2024-01-10T00:45:47;-3.90;99.90
55083;DHT22;40978;52.850;6.506;2024-01-10T00:48:13;-3.90;99.90
55083;DHT22;40978;52.850;6.506;2024-01-10T00:50:39;-3.90;99.90
55083;DHT22;40978;52.850;6.506;2024-01-10T00:53:05;-3.90;99.90
55083;DHT22;40978;52.850;6.506;2024-01-10T00:55:31;-3.90;99.90
55083;DHT22;40978;52.850;6.506;2024-01-10T00:57:56;-3.90;99.90
55083;DHT22;40978;52.850;6.506;2024-01-10T01:00:22;-3.90;99.90
55083;DHT22;40978;52.850;6.506;2024-01-10T01:02:48;-4.00;99.90
55083;DHT22;40978;52.850;6.506;2024-01-10T01:05:13;-3.90;99.90
55083;DHT22;40978;52.850;6.506;2024-01-10T01:07:39;-4.00;99.90
55083;DHT22;40978;52.850;6.506;2024-01-10T01:10:05;-4.00;99.90
55083;DHT22;40978;52.850;6.506;2024-01-10T01:12:34;-4.00;99.90
55083;DHT22;40978;52.850;6.506;2024-01-10T01:15:00;-4.00;99.90
55083;DHT22;40978;52.850;6.506;2024-01-10T01:17:25;-4.00;99.90
55083;DHT22;40978;52.850;6.506;2024-01-10T01:19:51;-4.00;99.90
55083;DHT22;40978;52.850;6.506;2024-01-10T01:22:17;-4.00;99.90
55083;DHT22;40978;52.850;6.506;2024-01-10T01:24:43;-4.10;99.90
55083;DHT22;40978;52.850;6.506;2024-01-10T01:27:09;-4.10;99.90
55083;DHT22;40978;52.850;6.506;2024-01-10T01:29:34;-4.00;99.90
55083;DHT22;40978;52.850;6.506;2024-01-10T01:32:00;-4.10;99.90
55083;DHT22;40978;52.850;6.506;2024-01-10T01:34:26;-4.10;99.90
55083;DHT22;40978;52.850;6.506;2024-01-10T01:36:51;-4.20;99.90
55083;DHT22;40978;52.850;6.506;2024-01-10T01:39:18;-4.20;99.90
55083;DHT22;40978;52.850;6.506;2024-01-10T01:41:44;-4.20;99.90
55083;DHT22;40978;52.850;6.506;2024-01-10T01:44:09;-4.20;99.90
55083;DHT22;40978;52.850;6.506;2024-01-10T01:46:35;-4.20;99.90
55083;DHT22;40978;52.850;6.506;2024-01-10T01:49:01;-4.20;99.90
55083;DHT22;40978;52.850;6.506;2024-01-10T01:51:29;-4.30;99.90
55083;DHT22;40978;52.850;6.506;2024-01-10T01:53:56;-4.30;99.90
55083;DHT22;40978;52.850;6.506;2024-01-10T01:56:22;-4.40;99.90
55083;DHT22;40978;52.850;6.506;2024-01-10T01:58:50;-4.40;99.90
55083;DHT22;40978;52.850;6.506;2024-01-10T02:01:17;-4.40;99.90
55083;DHT22;40978;52.850;6.506;2024-01-10T02:03:47;-4.40;99.90
55083;DHT22;40978;52.850;6.506;2024-01-10T02:06:12;-4.40;99.90
55083;DHT22;40978;52.850;6.506;2024-01-10T02:08:38;-4.50;99.90
55083;DHT22;40978;52.850;6.506;2024-01-10T02:11:05;-4.50;99.90
55083;DHT22;40978;52.850;6.506;2024-01-10T02:13:34;-4.50;99.90
55083;DHT22;40978;52.850;6.506;2024-01-10T02:16:00;-4.50;99.90
55083;DHT22;40978;52.850;6.506;2024-01-10T02:18:25;-4.50;99.90
55083;DHT22;40978;52.850;6.506;2024-01-10T02:20:51;-4.50;99.90
55083;DHT22;40978;52.850;6.506;2024-01-10T02:23:17;-4.50;99.90
55083;DHT22;40978;52.850;6.506;2024-01-10T02:25:44;-4.50;99.90
55083;DHT22;40978;52.850;6.506;2024-01-10T02:28:10;-4.60;99.90
55083;DHT22;40978;52.850;6.506;2024-01-10T02:30:36;-4.60;99.90
55083;DHT22;40978;52.850;6.506;2024-01-10T02:33:01;-4.60;99.90
55083;DHT22;40978;52.850;6.506;2024-01-10T02:35:27;-4.60;99.90
55083;DHT22;40978;52.850;6.506;2024-01-10T02:37:54;-4.60;99.90
55083;DHT22;40978;52.850;6.506;2024-01-10T02:40:20;-4.60;99.90
55083;DHT22;40978;52.850;6.506;2024-01-10T02:42:46;-4.60;99.90
55083;DHT22;40978;52.850;6.506;2024-01-10T02:45:12;-4.60;99.90
55083;DHT22;40978;52.850;6.506;2024-01-10T02:47:38;-4.60;99.90
55083;DHT22;40978;52.850;6.506;2024-01-10T02:50:05;-4.60;99.90
55083;DHT22;40978;52.850;6.506;2024-01-10T02:52:31;-4.50;99.90
55083;DHT22;40978;52.850;6.506;2024-01-10T02:54:56;-4.50;99.90
55083;DHT22;40978;52.850;6.506;2024-01-10T02:57:22;-4.50;99.90
55083;DHT22;40978;52.850;6.506;2024-01-10T02:59:49;-4.50;99.90
55083;DHT22;40978;52.850;6.506;2024-01-10T03:02:15;-4.50;99.90
55083;DHT22;40978;52.850;6.506;2024-01-10T03:04:41;-4.40;99.90
55083;DHT22;40978;52.850;6.506;2024-01-10T03:07:07;-4.40;99.90
55083;DHT22;40978;52.850;6.506;2024-01-10T03:09:33;-4.40;99.90
55083;DHT22;40978;52.850;6.506;2024-01-10T03:11:59;-4.40;99.90
55083;DHT22;40978;52.850;6.506;2024-01-10T03:14:24;-4.40;99.90
55083;DHT22;40978;52.850;6.506;2024-01-10T03:16:50;-4.40;99.90
55083;DHT22;40978;52.850;6.506;2024-01-10T03:19:16;-4.40;99.90
55083;DHT22;40978;52.850;6.506;2024-01-10T03:21:41;-4.40;99.90
55083;DHT22;40978;52.850;6.506;2024-01-10T03:24:07;-4.40;99.90
55083;DHT22;40978;52.850;6.506;2024-01-10T03:26:33;-4.50;99.90
55083;DHT22;40978;52.850;6.506;2024-01-10T03:28:59;-4.50;99.90
55083;DHT22;40978;52.850;6.506;2024-01-10T03:31:29;-4.40;99.90
55083;DHT22;40978;52.850;6.506;2024-01-10T03:33:56;-4.40;99.90
55083;DHT22;40978;52.850;6.506;2024-01-10T03:36:22;-4.40;99.90
55083;DHT22;40978;52.850;6.506;2024-01-10T03:38:47;-4.40;99.90
55083;DHT22;40978;52.850;6.506;2024-01-10T03:41:17;-4.40;99.90
55083;DHT22;40978;52.850;6.506;2024-01-10T03:43:43;-4.40;99.90
55083;DHT22;40978;52.850;6.506;2024-01-10T03:46:10;-4.40;99.90
55083;DHT22;40978;52.850;6.506;2024-01-10T03:48:36;-4.40;99.90
55083;DHT22;40978;52.850;6.506;2024-01-10T03:51:02;-4.40;99.90
55083;DHT22;40978;52.850;6.506;2024-01-10T03:53:28;-4.40;99.90
55083;DHT22;40978;52.850;6.506;2024-01-10T03:55:55;-4.40;99.90
55083;DHT22;40978;52.850;6.506;2024-01-10T03:58:20;-4.40;99.90
55083;DHT22;40978;52.850;6.506;2024-01-10T04:00:46;-4.40;99.90
55083;DHT22;40978;52.850;6.506;2024-01-10T04:03:12;-4.40;99.90
55083;DHT22;40978;52.850;6.506;2024-01-10T04:05:37;-4.40;99.90
55083;DHT22;40978;52.850;6.506;2024-01-10T04:08:03;-4.40;99.90
55083;DHT22;40978;52.850;6.506;2024-01-10T04:10:29;-4.40;99.90
55083;DHT22;40978;52.850;6.506;2024-01-10T04:12:55;-4.40;99.90
55083;DHT22;40978;52.850;6.506;2024-01-10T04:15:20;-4.40;99.90
55083;DHT22;40978;52.850;6.506;2024-01-10T04:17:46;-4.40;99.90
55083;DHT22;40978;52.850;6.506;2024-01-10T04:20:13;-4.40;99.90
55083;DHT22;40978;52.850;6.506;2024-01-10T04:22:38;-4.50;99.90
55083;DHT22;40978;52.850;6.506;2024-01-10T04:25:06;-4.50;99.90
55083;DHT22;40978;52.850;6.506;2024-01-10T04:27:32;-4.50;99.90
55083;DHT22;40978;52.850;6.506;2024-01-10T04:29:58;-4.40;99.90
55083;DHT22;40978;52.850;6.506;2024-01-10T04:32:23;-4.40;99.90
55083;DHT22;40978;52.850;6.506;2024-01-10T04:34:49;-4.50;99.90
55083;DHT22;40978;52.850;6.506;2024-01-10T04:37:16;-4.50;99.90
55083;DHT22;40978;52.850;6.506;2024-01-10T04:39:41;-4.50;99.90
55083;DHT22;40978;52.850;6.506;2024-01-10T04:42:10;-4.50;99.90
55083;DHT22;40978;52.850;6.506;2024-01-10T04:44:36;-4.50;99.90
55083;DHT22;40978;52.850;6.506;2024-01-10T04:47:03;-4.60;99.90
55083;DHT22;40978;52.850;6.506;2024-01-10T04:49:28;-4.50;99.90
55083;DHT22;40978;52.850;6.506;2024-01-10T04:51:54;-4.50;99.90
55083;DHT22;40978;52.850;6.506;2024-01-10T04:54:20;-4.50;99.90
55083;DHT22;40978;52.850;6.506;2024-01-10T04:56:46;-4.50;99.90
55083;DHT22;40978;52.850;6.506;2024-01-10T04:59:12;-4.50;99.90
55083;DHT22;40978;52.850;6.506;2024-01-10T05:01:37;-4.50;99.90
55083;DHT22;40978;52.850;6.506;2024-01-10T05:04:04;-4.50;99.90
55083;DHT22;40978;52.850;6.506;2024-01-10T05:06:29;-4.60;99.90
55083;DHT22;40978;52.850;6.506;2024-01-10T05:08:56;-4.60;99.90
55083;DHT22;40978;52.850;6.506;2024-01-10T05:11:24;-4.60;99.90
55083;DHT22;40978;52.850;6.506;2024-01-10T05:13:50;-4.60;99.90
55083;DHT22;40978;52.850;6.506;2024-01-10T05:16:16;-4.60;99.90
55083;DHT22;40978;52.850;6.506;2024-01-10T05:18:42;-4.70;99.90
55083;DHT22;40978;52.850;6.506;2024-01-10T05:21:08;-4.70;99.90
55083;DHT22;40978;52.850;6.506;2024-01-10T05:23:34;-4.70;99.90
55083;DHT22;40978;52.850;6.506;2024-01-10T05:26:00;-4.70;99.90
55083;DHT22;40978;52.850;6.506;2024-01-10T05:28:25;-4.70;99.90
55083;DHT22;40978;52.850;6.506;2024-01-10T05:30:51;-4.70;99.90
55083;DHT22;40978;52.850;6.506;2024-01-10T05:33:17;-4.70;99.90
55083;DHT22;40978;52.850;6.506;2024-01-10T05:35:42;-4.70;99.90
55083;DHT22;40978;52.850;6.506;2024-01-10T05:38:08;-4.70;99.90
55083;DHT22;40978;52.850;6.506;2024-01-10T05:40:34;-4.60;99.90
55083;DHT22;40978;52.850;6.506;2024-01-10T05:42:59;-4.70;99.90
55083;DHT22;40978;52.850;6.506;2024-01-10T05:45:25;-4.70;99.90
55083;DHT22;40978;52.850;6.506;2024-01-10T05:47:52;-4.60;99.90
55083;DHT22;40978;52.850;6.506;2024-01-10T05:50:17;-4.60;99.90
55083;DHT22;40978;52.850;6.506;2024-01-10T05:52:43;-4.60;99.90
55083;DHT22;40978;52.850;6.506;2024-01-10T05:55:09;-4.60;99.90
55083;DHT22;40978;52.850;6.506;2024-01-10T05:57:36;-4.60;99.90
55083;DHT22;40978;52.850;6.506;2024-01-10T06:00:02;-4.60;99.90
55083;DHT22;40978;52.850;6.506;2024-01-10T06:02:28;-4.60;99.90
55083;DHT22;40978;52.850;6.506;2024-01-10T06:04:54;-4.60;99.90
55083;DHT22;40978;52.850;6.506;2024-01-10T06:07:20;-4.60;99.90
55083;DHT22;40978;52.850;6.506;2024-01-10T06:09:48;-4.60;99.90
55083;DHT22;40978;52.850;6.506;2024-01-10T06:12:14;-4.60;99.90
55083;DHT22;40978;52.850;6.506;2024-01-10T06:14:39;-4.60;99.90
55083;DHT22;40978;52.850;6.506;2024-01-10T06:17:06;-4.60;99.90
55083;DHT22;40978;52.850;6.506;2024-01-10T06:19:32;-4.70;99.90
55083;DHT22;40978;52.850;6.506;2024-01-10T06:21:58;-4.60;99.90
55083;DHT22;40978;52.850;6.506;2024-01-10T06:24:24;-4.70;99.90
55083;DHT22;40978;52.850;6.506;2024-01-10T06:26:50;-4.60;99.90
55083;DHT22;40978;52.850;6.506;2024-01-10T06:29:16;-4.60;99.90
55083;DHT22;40978;52.850;6.506;2024-01-10T06:31:42;-4.60;99.90
55083;DHT22;40978;52.850;6.506;2024-01-10T06:34:08;-4.60;99.90
55083;DHT22;40978;52.850;6.506;2024-01-10T06:36:34;-4.70;99.90
55083;DHT22;40978;52.850;6.506;2024-01-10T06:39:00;-4.70;99.90
55083;DHT22;40978;52.850;6.506;2024-01-10T06:41:26;-4.60;99.90
55083;DHT22;40978;52.850;6.506;2024-01-10T06:43:53;-4.60;99.90
55083;DHT22;40978;52.850;6.506;2024-01-10T06:46:19;-4.60;99.90
55083;DHT22;40978;52.850;6.506;2024-01-10T06:48:46;-4.70;99.90
55083;DHT22;40978;52.850;6.506;2024-01-10T06:51:15;-4.60;99.90
55083;DHT22;40978;52.850;6.506;2024-01-10T06:53:41;-4.60;99.90
55083;DHT22;40978;52.850;6.506;2024-01-10T06:56:07;-4.70;99.90
55083;DHT22;40978;52.850;6.506;2024-01-10T06:58:35;-4.60;99.90
55083;DHT22;40978;52.850;6.506;2024-01-10T07:01:01;-4.70;99.90
55083;DHT22;40978;52.850;6.506;2024-01-10T07:03:27;-4.70;99.90
55083;DHT22;40978;52.850;6.506;2024-01-10T07:05:53;-4.70;99.90
55083;DHT22;40978;52.850;6.506;2024-01-10T07:08:18;-4.70;99.90
55083;DHT22;40978;52.850;6.506;2024-01-10T07:10:44;-4.70;99.90
55083;DHT22;40978;52.850;6.506;2024-01-10T07:13:10;-4.70;99.90
55083;DHT22;40978;52.850;6.506;2024-01-10T07:15:48;-4.70;99.90
55083;DHT22;40978;52.850;6.506;2024-01-10T07:18:16;-4.80;99.90
55083;DHT22;40978;52.850;6.506;2024-01-10T07:20:42;-4.70;99.90
55083;DHT22;40978;52.850;6.506;2024-01-10T07:23:08;-4.70;99.90
55083;DHT22;40978;52.850;6.506;2024-01-10T07:25:34;-4.70;99.90
55083;DHT22;40978;52.850;6.506;2024-01-10T07:27:59;-4.70;99.90
55083;DHT22;40978;52.850;6.506;2024-01-10T07:30:26;-4.70;99.90
55083;DHT22;40978;52.850;6.506;2024-01-10T07:32:51;-4.70;99.90
55083;DHT22;40978;52.850;6.506;2024-01-10T07:35:17;-4.70;99.90
55083;DHT22;40978;52.850;6.506;2024-01-10T07:37:43;-4.70;99.90
55083;DHT22;40978;52.850;6.506;2024-01-10T07:40:09;-4.70;99.90
55083;DHT22;40978;52.850;6.506;2024-01-10T07:42:38;-4.70;99.90
55083;DHT22;40978;52.850;6.506;2024-01-10T07:45:05;-4.70;99.90
55083;DHT22;40978;52.850;6.506;2024-01-10T07:47:32;-4.60;99.90
55083;DHT22;40978;52.850;6.506;2024-01-10T07:49:59;-4.70;99.90
55083;DHT22;40978;52.850;6.506;2024-01-10T07:52:26;-4.60;99.90
55083;DHT22;40978;52.850;6.506;2024-01-10T07:54:51;-4.60;99.90
55083;DHT22;40978;52.850;6.506;2024-01-10T07:57:17;-4.60;99.90
55083;DHT22;40978;52.850;6.506;2024-01-10T07:59:47;-4.60;99.90
55083;DHT22;40978;52.850;6.506;2024-01-10T08:02:13;-4.60;99.90
55083;DHT22;40978;52.850;6.506;2024-01-10T08:04:38;-4.60;99.90
55083;DHT22;40978;52.850;6.506;2024-01-10T08:07:04;-4.70;99.90
55083;DHT22;40978;52.850;6.506;2024-01-10T08:09:30;-4.60;99.90
55083;DHT22;40978;52.850;6.506;2024-01-10T08:11:56;-4.60;99.90
55083;DHT22;40978;52.850;6.506;2024-01-10T08:14:21;-4.60;99.90
55083;DHT22;40978;52.850;6.506;2024-01-10T08:16:47;-4.60;99.90
55083;DHT22;40978;52.850;6.506;2024-01-10T08:19:13;-4.60;99.90
55083;DHT22;40978;52.850;6.506;2024-01-10T08:21:39;-4.50;99.90
55083;DHT22;40978;52.850;6.506;2024-01-10T08:24:05;-4.50;99.90
55083;DHT22;40978;52.850;6.506;2024-01-10T08:26:31;-4.50;99.90
55083;DHT22;40978;52.850;6.506;2024-01-10T08:28:57;-4.40;99.90
55083;DHT22;40978;52.850;6.506;2024-01-10T08:31:23;-4.40;99.90
55083;DHT22;40978;52.850;6.506;2024-01-10T08:33:49;-4.40;99.90
55083;DHT22;40978;52.850;6.506;2024-01-10T08:36:15;-4.40;99.90
55083;DHT22;40978;52.850;6.506;2024-01-10T08:38:41;-4.30;99.90
55083;DHT22;40978;52.850;6.506;2024-01-10T08:41:08;-4.20;99.90
55083;DHT22;40978;52.850;6.506;2024-01-10T08:43:34;-4.20;99.90
55083;DHT22;40978;52.850;6.506;2024-01-10T08:46:00;-4.20;99.90
55083;DHT22;40978;52.850;6.506;2024-01-10T08:48:26;-4.10;99.90
55083;DHT22;40978;52.850;6.506;2024-01-10T08:50:51;-4.10;99.90
55083;DHT22;40978;52.850;6.506;2024-01-10T08:53:19;-4.00;99.90
55083;DHT22;40978;52.850;6.506;2024-01-10T08:55:45;-4.00;99.90
55083;DHT22;40978;52.850;6.506;2024-01-10T08:58:12;-3.90;99.90
55083;DHT22;40978;52.850;6.506;2024-01-10T09:00:38;-3.90;99.90
55083;DHT22;40978;52.850;6.506;2024-01-10T09:03:04;-3.80;99.90
55083;DHT22;40978;52.850;6.506;2024-01-10T09:05:30;-3.80;99.90
55083;DHT22;40978;52.850;6.506;2024-01-10T09:07:56;-3.80;99.90
55083;DHT22;40978;52.850;6.506;2024-01-10T09:10:22;-3.70;99.90
55083;DHT22;40978;52.850;6.506;2024-01-10T09:12:48;-3.70;99.90
55083;DHT22;40978;52.850;6.506;2024-01-10T09:15:14;-3.70;99.90
55083;DHT22;40978;52.850;6.506;2024-01-10T09:17:41;-3.60;99.90
55083;DHT22;40978;52.850;6.506;2024-01-10T09:20:07;-3.60;99.90
55083;DHT22;40978;52.850;6.506;2024-01-10T09:22:34;-3.60;99.90
55083;DHT22;40978;52.850;6.506;2024-01-10T09:24:59;-3.60;99.90
55083;DHT22;40978;52.850;6.506;2024-01-10T09:27:31;-3.50;99.90
55083;DHT22;40978;52.850;6.506;2024-01-10T09:29:57;-3.50;99.90
55083;DHT22;40978;52.850;6.506;2024-01-10T09:32:22;-3.40;99.90
55083;DHT22;40978;52.850;6.506;2024-01-10T09:34:48;-3.40;99.90
55083;DHT22;40978;52.850;6.506;2024-01-10T09:37:14;-3.40;99.90
55083;DHT22;40978;52.850;6.506;2024-01-10T09:39:40;-3.40;99.90
55083;DHT22;40978;52.850;6.506;2024-01-10T09:42:05;-3.30;99.90
55083;DHT22;40978;52.850;6.506;2024-01-10T09:44:32;-3.30;99.90
55083;DHT22;40978;52.850;6.506;2024-01-10T09:46:59;-3.30;99.90
55083;DHT22;40978;52.850;6.506;2024-01-10T09:49:26;-3.20;99.90
55083;DHT22;40978;52.850;6.506;2024-01-10T09:51:58;-3.20;99.90
55083;DHT22;40978;52.850;6.506;2024-01-10T09:54:26;-3.20;99.90
55083;DHT22;40978;52.850;6.506;2024-01-10T09:56:51;-3.20;99.90
55083;DHT22;40978;52.850;6.506;2024-01-10T09:59:18;-3.10;99.90
55083;DHT22;40978;52.850;6.506;2024-01-10T10:01:44;-3.00;99.90
55083;DHT22;40978;52.850;6.506;2024-01-10T10:04:12;-3.00;99.90
55083;DHT22;40978;52.850;6.506;2024-01-10T10:06:38;-3.00;99.90
55083;DHT22;40978;52.850;6.506;2024-01-10T10:09:04;-3.00;99.90
55083;DHT22;40978;52.850;6.506;2024-01-10T10:11:30;-2.90;99.90
55083;DHT22;40978;52.850;6.506;2024-01-10T10:13:56;-2.90;99.90
55083;DHT22;40978;52.850;6.506;2024-01-10T10:16:25;-2.90;99.90
55083;DHT22;40978;52.850;6.506;2024-01-10T10:18:54;-2.80;99.90
55083;DHT22;40978;52.850;6.506;2024-01-10T10:21:25;-2.70;99.90
55083;DHT22;40978;52.850;6.506;2024-01-10T10:24:02;-2.60;99.90
55083;DHT22;40978;52.850;6.506;2024-01-10T10:26:33;-2.60;99.90
55083;DHT22;40978;52.850;6.506;2024-01-10T10:28:59;-2.50;99.90
55083;DHT22;40978;52.850;6.506;2024-01-10T10:31:25;-2.50;99.90
55083;DHT22;40978;52.850;6.506;2024-01-10T10:33:52;-2.50;99.90
55083;DHT22;40978;52.850;6.506;2024-01-10T10:36:19;-2.40;99.90
55083;DHT22;40978;52.850;6.506;2024-01-10T10:38:47;-2.40;99.90
55083;DHT22;40978;52.850;6.506;2024-01-10T10:41:14;-2.30;99.90
55083;DHT22;40978;52.850;6.506;2024-01-10T10:43:40;-2.30;99.90
55083;DHT22;40978;52.850;6.506;2024-01-10T10:46:10;-2.20;99.90
55083;DHT22;40978;52.850;6.506;2024-01-10T10:48:38;-2.20;99.90
55083;DHT22;40978;52.850;6.506;2024-01-10T10:53:38;-2.20;99.90
55083;DHT22;40978;52.850;6.506;2024-01-10T10:56:05;-2.10;99.90
55083;DHT22;40978;52.850;6.506;2024-01-10T10:58:43;-2.10;99.90
55083;DHT22;40978;52.850;6.506;2024-01-10T11:01:13;-2.10;99.90
55083;DHT22;40978;52.850;6.506;2024-01-10T11:03:40;-2.00;99.90
55083;DHT22;40978;52.850;6.506;2024-01-10T11:06:07;-2.00;99.90
55083;DHT22;40978;52.850;6.506;2024-01-10T11:11:06;-2.00;99.90
55083;DHT22;40978;52.850;6.506;2024-01-10T11:22:09;-1.70;99.90
55083;DHT22;40978;52.850;6.506;2024-01-10T11:24:37;-1.70;99.90
55083;DHT22;40978;52.850;6.506;2024-01-10T11:27:21;-1.60;99.90
55083;DHT22;40978;52.850;6.506;2024-01-10T11:29:48;-1.60;99.90
55083;DHT22;40978;52.850;6.506;2024-01-10T11:32:15;-1.50;99.90
55083;DHT22;40978;52.850;6.506;2024-01-10T11:34:54;-1.50;99.90
55083;DHT22;40978;52.850;6.506;2024-01-10T11:37:27;-1.50;99.90
55083;DHT22;40978;52.850;6.506;2024-01-10T11:39:53;-1.40;99.90
55083;DHT22;40978;52.850;6.506;2024-01-10T11:42:23;-1.40;99.90
55083;DHT22;40978;52.850;6.506;2024-01-10T11:44:50;-1.40;99.90
55083;DHT22;40978;52.850;6.506;2024-01-10T11:47:17;-1.40;99.90
55083;DHT22;40978;52.850;6.506;2024-01-10T11:49:56;-1.40;99.90
55083;DHT22;40978;52.850;6.506;2024-01-10T11:52:23;-1.30;99.90
55083;DHT22;40978;52.850;6.506;2024-01-10T11:54:49;-1.30;99.90
55083;DHT22;40978;52.850;6.506;2024-01-10T11:57:20;-1.20;99.90
55083;DHT22;40978;52.850;6.506;2024-01-10T11:59:50;-1.20;99.90
55083;DHT22;40978;52.850;6.506;2024-01-10T12:02:17;-1.10;99.90
55083;DHT22;40978;52.850;6.506;2024-01-10T12:04:43;-1.10;99.90
55083;DHT22;40978;52.850;6.506;2024-01-10T12:07:09;-1.10;99.90
55083;DHT22;40978;52.850;6.506;2024-01-10T12:09:35;-1.00;99.90
55083;DHT22;40978;52.850;6.506;2024-01-10T12:12:04;-1.00;99.90
55083;DHT22;40978;52.850;6.506;2024-01-10T12:14:30;-0.90;99.90
55083;DHT22;40978;52.850;6.506;2024-01-10T12:17:00;-0.90;99.90
55083;DHT22;40978;52.850;6.506;2024-01-10T12:19:26;-0.90;99.90
55083;DHT22;40978;52.850;6.506;2024-01-10T12:21:52;-0.90;99.90
55083;DHT22;40978;52.850;6.506;2024-01-10T12:24:20;-0.80;99.90
55083;DHT22;40978;52.850;6.506;2024-01-10T12:26:47;-0.80;99.90
55083;DHT22;40978;52.850;6.506;2024-01-10T12:29:17;-0.80;99.90
55083;DHT22;40978;52.850;6.506;2024-01-10T12:31:43;-0.70;99.90
55083;DHT22;40978;52.850;6.506;2024-01-10T12:34:11;-0.70;99.90
55083;DHT22;40978;52.850;6.506;2024-01-10T12:36:37;-0.70;99.90
55083;DHT22;40978;52.850;6.506;2024-01-10T12:39:03;-0.60;99.90
55083;DHT22;40978;52.850;6.506;2024-01-10T12:41:32;-0.60;99.90
55083;DHT22;40978;52.850;6.506;2024-01-10T12:43:59;-0.60;99.90
55083;DHT22;40978;52.850;6.506;2024-01-10T12:46:27;-0.60;99.90
55083;DHT22;40978;52.850;6.506;2024-01-10T12:49:06;-0.60;99.90
55083;DHT22;40978;52.850;6.506;2024-01-10T12:51:34;-0.50;99.90
55083;DHT22;40978;52.850;6.506;2024-01-10T12:54:02;-0.50;99.90
55083;DHT22;40978;52.850;6.506;2024-01-10T12:56:30;-0.50;99.90
55083;DHT22;40978;52.850;6.506;2024-01-10T12:58:56;-0.50;99.90
55083;DHT22;40978;52.850;6.506;2024-01-10T13:01:24;-0.50;99.90
55083;DHT22;40978;52.850;6.506;2024-01-10T13:03:50;-0.50;99.90
55083;DHT22;40978;52.850;6.506;2024-01-10T13:06:17;-0.50;99.90
55083;DHT22;40978;52.850;6.506;2024-01-10T13:08:45;-0.50;99.90
55083;DHT22;40978;52.850;6.506;2024-01-10T13:11:11;-0.50;99.90
55083;DHT22;40978;52.850;6.506;2024-01-10T13:13:37;-0.40;99.90
55083;DHT22;40978;52.850;6.506;2024-01-10T13:16:03;-0.40;99.90
55083;DHT22;40978;52.850;6.506;2024-01-10T13:18:28;-0.50;99.90
55083;DHT22;40978;52.850;6.506;2024-01-10T13:20:55;-0.40;99.90
55083;DHT22;40978;52.850;6.506;2024-01-10T13:23:21;-0.40;99.90
55083;DHT22;40978;52.850;6.506;2024-01-10T13:25:48;-0.30;99.90
55083;DHT22;40978;52.850;6.506;2024-01-10T13:28:14;-0.30;99.90
55083;DHT22;40978;52.850;6.506;2024-01-10T13:30:41;-0.30;99.90
55083;DHT22;40978;52.850;6.506;2024-01-10T13:33:09;-0.30;99.90
55083;DHT22;40978;52.850;6.506;2024-01-10T13:35:37;-0.30;99.90
55083;DHT22;40978;52.850;6.506;2024-01-10T13:38:04;-0.30;99.90
55083;DHT22;40978;52.850;6.506;2024-01-10T13:40:30;-0.30;99.90
55083;DHT22;40978;52.850;6.506;2024-01-10T13:42:59;-0.30;99.90
55083;DHT22;40978;52.850;6.506;2024-01-10T13:45:28;-0.20;99.90
55083;DHT22;40978;52.850;6.506;2024-01-10T13:47:54;-0.20;99.90
55083;DHT22;40978;52.850;6.506;2024-01-10T13:50:19;-0.20;99.90
55083;DHT22;40978;52.850;6.506;2024-01-10T13:52:45;-0.20;99.90
55083;DHT22;40978;52.850;6.506;2024-01-10T13:55:11;-0.20;99.90
55083;DHT22;40978;52.850;6.506;2024-01-10T13:57:37;-0.20;99.90
55083;DHT22;40978;52.850;6.506;2024-01-10T14:00:03;-0.20;99.90
55083;DHT22;40978;52.850;6.506;2024-01-10T14:02:29;-0.20;99.90
55083;DHT22;40978;52.850;6.506;2024-01-10T14:04:55;-0.10;99.90
55083;DHT22;40978;52.850;6.506;2024-01-10T14:07:23;-0.10;99.90
55083;DHT22;40978;52.850;6.506;2024-01-10T14:09:50;-0.10;99.90
55083;DHT22;40978;52.850;6.506;2024-01-10T14:12:16;-0.10;99.90
55083;DHT22;40978;52.850;6.506;2024-01-10T14:14:41;-0.10;99.90
55083;DHT22;40978;52.850;6.506;2024-01-10T14:17:07;-0.10;99.90
55083;DHT22;40978;52.850;6.506;2024-01-10T14:19:33;-0.10;99.90
55083;DHT22;40978;52.850;6.506;2024-01-10T14:21:59;-0.20;99.90
55083;DHT22;40978;52.850;6.506;2024-01-10T14:24:25;-0.20;99.90
55083;DHT22;40978;52.850;6.506;2024-01-10T14:26:51;-0.20;99.90
55083;DHT22;40978;52.850;6.506;2024-01-10T14:29:17;-0.10;99.90
55083;DHT22;40978;52.850;6.506;2024-01-10T14:31:42;-0.10;99.90
55083;DHT22;40978;52.850;6.506;2024-01-10T14:34:08;-0.10;99.90
55083;DHT22;40978;52.850;6.506;2024-01-10T14:36:36;-0.10;99.90
55083;DHT22;40978;52.850;6.506;2024-01-10T14:39:02;-0.10;99.90
55083;DHT22;40978;52.850;6.506;2024-01-10T14:41:29;-0.10;99.90
55083;DHT22;40978;52.850;6.506;2024-01-10T14:43:55;-0.10;99.90
55083;DHT22;40978;52.850;6.506;2024-01-10T14:46:22;-0.10;99.90
55083;DHT22;40978;52.850;6.506;2024-01-10T14:48:48;-0.10;99.90
55083;DHT22;40978;52.850;6.506;2024-01-10T14:51:14;-0.10;99.90
55083;DHT22;40978;52.850;6.506;2024-01-10T14:53:40;-0.10;99.90
55083;DHT22;40978;52.850;6.506;2024-01-10T14:56:06;-0.20;99.90
55083;DHT22;40978;52.850;6.506;2024-01-10T14:58:31;-0.20;99.90
55083;DHT22;40978;52.850;6.506;2024-01-10T15:00:58;-0.20;99.90
55083;DHT22;40978;52.850;6.506;2024-01-10T15:03:24;-0.30;99.90
55083;DHT22;40978;52.850;6.506;2024-01-10T15:05:51;-0.30;99.90
55083;DHT22;40978;52.850;6.506;2024-01-10T15:08:19;-0.30;99.90
55083;DHT22;40978;52.850;6.506;2024-01-10T15:10:44;-0.30;99.90
55083;DHT22;40978;52.850;6.506;2024-01-10T15:13:10;-0.40;99.90
55083;DHT22;40978;52.850;6.506;2024-01-10T15:15:40;-0.40;99.90
55083;DHT22;40978;52.850;6.506;2024-01-10T15:18:07;-0.50;99.90
55083;DHT22;40978;52.850;6.506;2024-01-10T15:20:33;-0.50;99.90
55083;DHT22;40978;52.850;6.506;2024-01-10T15:22:59;-0.50;99.90
55083;DHT22;40978;52.850;6.506;2024-01-10T15:25:24;-0.60;99.90
55083;DHT22;40978;52.850;6.506;2024-01-10T15:27:53;-0.60;99.90
55083;DHT22;40978;52.850;6.506;2024-01-10T15:30:19;-0.60;99.90
55083;DHT22;40978;52.850;6.506;2024-01-10T15:32:48;-0.70;99.90
55083;DHT22;40978;52.850;6.506;2024-01-10T15:35:15;-0.80;99.90
55083;DHT22;40978;52.850;6.506;2024-01-10T15:37:40;-0.90;99.90
55083;DHT22;40978;52.850;6.506;2024-01-10T15:40:11;-0.90;99.90